Wilpen, Minnesota
Current Conditions -  °F | °C
As of 5:53 PM on Saturday 25 Oct 2014 (Local Time) from KHIB Reporting Station
Clear Clear  
Wind Chill: 53°   Ceiling: Unl
Heat Index: 53°   Visibility: 10mi
Dew Point: 24°   Wind: 15mph
Humidity: 32%   Direction: 290°WNW
Pressure: 29.96"   Gusts: 22mph
Location:  47.4158°N, 93.0053°W
Report Text: KHIB 252253Z AUTO 29013G19KT 10SM CLR 12/M04 A2996 RMK AO2 SLP151 T01171044
Loading
Personal Weather Stations






























Interactive Weather Map
Tropical Storm Tracking
New forecast layout! Learn more

10-Day Weather Forecast

Advertisements
Track Severe Weather on mobile